Time;durP1;ratioP1;P1;durP2;ratioP2;P2;SDS_P1;SDS_P2;PMS_P1;PMS_P2;Temp;Humidity;BMP_temperature;BMP_pressure;BME280_temperature;BME280_humidity;BME280_pressure;Samples;Min_cycle;Max_cycle;Signal;HPM_P1;HPM_P2
2023/09/12 00:02:11;;;;;;;21.23;19.15;;;;;;;20.08;100.00;101113.72;5274468;28;20033;-82
2023/09/12 00:04:42;;;;;;;23.57;18.97;;;;;;;19.95;100.00;101104.66;5270430;28;20040;-83
2023/09/12 00:07:13;;;;;;;22.20;20.10;;;;;;;19.88;100.00;101108.50;5251548;28;20561;-83
2023/09/12 00:09:45;;;;;;;21.43;19.23;;;;;;;19.90;100.00;101106.63;5269386;28;20113;-82
2023/09/12 00:12:17;;;;;;;22.80;20.33;;;;;;;19.84;100.00;101116.56;5267426;28;20028;-82
2023/09/12 00:14:48;;;;;;;21.17;18.83;;;;;;;19.96;100.00;101112.50;5268727;28;20395;-82
2023/09/12 00:17:19;;;;;;;21.67;19.47;;;;;;;19.96;100.00;101125.72;5268188;28;20033;-82
2023/09/12 00:19:51;;;;;;;22.63;20.20;;;;;;;19.78;100.00;101118.66;5269454;28;20025;-82
2023/09/12 00:22:22;;;;;;;24.37;20.33;;;;;;;19.70;100.00;101120.75;5268806;28;20029;-83
2023/09/12 00:24:53;;;;;;;23.93;19.97;;;;;;;19.56;100.00;101116.09;5268415;28;20065;-84
2023/09/12 00:27:25;;;;;;;21.83;19.23;;;;;;;19.56;100.00;101116.97;5265769;28;20116;-83
2023/09/12 00:29:56;;;;;;;21.33;19.17;;;;;;;19.55;100.00;101119.69;5268151;28;20499;-82
2023/09/12 00:32:27;;;;;;;21.60;19.50;;;;;;;19.40;100.00;101122.06;5269199;28;20033;-83
2023/09/12 00:34:59;;;;;;;23.63;21.37;;;;;;;19.28;100.00;101114.69;5268517;28;20029;-81
2023/09/12 00:37:30;;;;;;;23.17;20.20;;;;;;;19.34;100.00;101118.84;5265747;28;20053;-82
2023/09/12 00:40:02;;;;;;;24.33;20.37;;;;;;;19.20;100.00;101122.94;5265885;28;20025;-82
2023/09/12 00:42:33;;;;;;;21.67;19.67;;;;;;;19.21;100.00;101116.72;5266806;28;20040;-80
2023/09/12 00:45:05;;;;;;;21.97;19.63;;;;;;;19.20;100.00;101116.81;5267159;28;20053;-82
2023/09/12 00:47:37;;;;;;;25.67;20.15;;;;;;;19.12;100.00;101120.63;5269116;28;20025;-82
2023/09/12 00:50:09;;;;;;;23.97;21.60;;;;;;;19.07;100.00;101113.84;5267413;28;20056;-82
2023/09/12 00:52:41;;;;;;;;;;;;;;;19.18;100.00;101116.03;5267901;28;20100;-82
2023/09/12 00:55:13;;;;;;;22.10;19.90;;;;;;;19.00;100.00;101109.72;5268537;28;19919;-82
2023/09/12 00:57:46;;;;;;;23.13;20.25;;;;;;;18.97;100.00;101107.25;5267246;28;20090;-82
2023/09/12 01:00:17;;;;;;;21.98;19.63;;;;;;;18.90;100.00;101110.13;5268453;28;20037;-83
2023/09/12 01:02:51;;;;;;;24.17;20.77;;;;;;;18.91;100.00;101108.34;5268505;28;20108;-82
2023/09/12 01:05:22;;;;;;;22.58;20.27;;;;;;;18.88;100.00;101109.31;5269280;28;20096;-82
2023/09/12 01:07:54;;;;;;;21.10;18.17;;;;;;;18.91;100.00;101111.84;5269602;28;20033;-82
2023/09/12 01:10:26;;;;;;;21.23;18.77;;;;;;;18.87;100.00;101107.63;5276500;28;20291;-82
2023/09/12 01:12:58;;;;;;;25.10;20.48;;;;;;;18.76;100.00;101105.38;5286773;28;20033;-82
2023/09/12 01:15:29;;;;;;;26.87;20.43;;;;;;;18.75;100.00;101097.53;5282123;28;20032;-83
2023/09/12 01:18:01;;;;;;;22.27;19.53;;;;;;;18.77;100.00;101104.47;5274080;28;20094;-82
2023/09/12 01:20:35;;;;;;;20.27;18.17;;;;;;;18.69;100.00;101096.03;5270980;28;20124;-82
2023/09/12 01:23:11;;;;;;;22.60;18.98;;;;;;;18.72;100.00;101100.28;5269375;28;20051;-82
2023/09/12 01:25:45;;;;;;;21.75;19.48;;;;;;;18.60;100.00;101096.41;5267279;28;20040;-81
2023/09/12 01:28:17;;;;;;;24.13;19.70;;;;;;;18.52;100.00;101096.72;5267784;28;20025;-82
2023/09/12 01:30:50;;;;;;;21.77;19.67;;;;;;;18.56;100.00;101097.44;5264417;28;20128;-81
2023/09/12 01:33:21;;;;;;;21.35;18.90;;;;;;;18.53;100.00;101097.56;5267871;28;20021;-82
2023/09/12 01:35:53;;;;;;;21.07;18.97;;;;;;;18.52;100.00;101090.56;5266297;28;20099;-82
2023/09/12 01:38:24;;;;;;;24.27;19.67;;;;;;;18.44;100.00;101087.41;5264520;28;20079;-82
2023/09/12 01:40:56;;;;;;;20.83;18.73;;;;;;;18.47;100.00;101093.41;5267400;28;20029;-81
2023/09/12 01:43:28;;;;;;;23.55;18.40;;;;;;;18.45;100.00;101097.00;5263332;28;20029;-83
2023/09/12 01:46:01;;;;;;;23.30;18.95;;;;;;;18.38;100.00;101099.03;5248054;28;20032;-82
2023/09/12 01:48:35;;;;;;;23.50;19.02;;;;;;;18.34;100.00;101097.47;5243422;28;20060;-83
2023/09/12 01:51:07;;;;;;;25.40;19.77;;;;;;;18.26;100.00;101099.53;5245054;28;20025;-82
2023/09/12 01:53:39;;;;;;;26.30;20.35;;;;;;;18.21;100.00;101099.75;5246268;28;20511;-82
2023/09/12 01:56:12;;;;;;;21.63;19.40;;;;;;;18.25;100.00;101095.19;5245201;28;20029;-83
2023/09/12 01:58:44;;;;;;;23.38;18.92;;;;;;;18.35;100.00;101105.31;5247194;28;20037;-84
2023/09/12 02:01:16;;;;;;;20.20;17.83;;;;;;;18.25;100.00;101103.09;5246233;28;20030;-83
2023/09/12 02:03:47;;;;;;;27.83;18.57;;;;;;;18.25;100.00;101100.47;5247111;28;20038;-82
2023/09/12 02:06:18;;;;;;;22.47;18.80;;;;;;;18.22;100.00;101094.41;5247132;28;20029;-83
2023/09/12 02:08:50;;;;;;;20.60;18.17;;;;;;;18.25;100.00;101090.75;5246805;28;20038;-83
2023/09/12 02:11:21;;;;;;;19.57;17.57;;;;;;;18.29;100.00;101088.84;5246812;28;20152;-83
2023/09/12 02:13:52;;;;;;;22.87;18.13;;;;;;;18.15;100.00;101090.28;5245578;28;20093;-83
2023/09/12 02:16:24;;;;;;;28.20;21.00;;;;;;;18.11;100.00;101096.59;5246811;28;20449;-83
2023/09/12 02:18:55;;;;;;;21.70;19.70;;;;;;;18.16;100.00;101084.09;5246256;28;20435;-83
2023/09/12 02:21:27;;;;;;;22.33;20.07;;;;;;;18.13;100.00;101092.13;5246492;28;20053;-80
2023/09/12 02:23:58;;;;;;;26.57;22.63;;;;;;;18.10;100.00;101088.75;5243910;28;20030;-81
2023/09/12 02:26:30;;;;;;;28.73;25.00;;;;;;;18.01;100.00;101096.06;5244660;28;20037;-82
2023/09/12 02:29:03;;;;;;;28.57;25.67;;;;;;;17.91;100.00;101094.72;5247790;28;20093;-81
2023/09/12 02:31:34;;;;;;;30.48;26.13;;;;;;;17.91;100.00;101094.72;5251326;28;20025;-81
2023/09/12 02:34:06;;;;;;;32.13;27.60;;;;;;;17.84;100.00;101099.34;5244713;28;20059;-81
2023/09/12 02:36:37;;;;;;;32.43;29.03;;;;;;;17.74;100.00;101094.47;5244652;28;20117;-82
2023/09/12 02:39:09;;;;;;;35.57;28.67;;;;;;;17.74;100.00;101095.34;5245217;28;20495;-84
2023/09/12 02:41:40;;;;;;;28.03;25.17;;;;;;;17.83;100.00;101094.13;5246176;28;20539;-82
2023/09/12 02:44:11;;;;;;;28.13;24.23;;;;;;;17.86;100.00;101100.13;5245219;28;20030;-81
2023/09/12 02:46:43;;;;;;;29.20;23.33;;;;;;;17.81;100.00;101091.56;5246047;28;20486;-82
2023/09/12 02:49:14;;;;;;;31.37;22.37;;;;;;;17.77;100.00;101091.72;5245470;28;20038;-81
2023/09/12 02:51:45;;;;;;;28.20;22.37;;;;;;;17.75;100.00;101088.28;5245289;28;20021;-82
2023/09/12 02:54:17;;;;;;;25.67;22.97;;;;;;;17.76;100.00;101088.25;5227784;28;20030;-82
2023/09/12 02:56:48;;;;;;;24.40;21.97;;;;;;;17.76;100.00;101090.00;5244521;28;20069;-82
2023/09/12 02:59:19;;;;;;;24.80;21.70;;;;;;;17.75;100.00;101088.28;5245025;28;20476;-83
2023/09/12 03:01:51;;;;;;;25.30;22.23;;;;;;;17.77;100.00;101091.72;5249476;28;20034;-83
2023/09/12 03:04:25;;;;;;;23.90;21.47;;;;;;;17.73;100.00;101091.00;5231912;28;20038;-82
2023/09/12 03:06:56;;;;;;;25.02;22.20;;;;;;;17.71;100.00;101092.84;5249029;28;20033;-81
2023/09/12 03:09:28;;;;;;;22.03;19.83;;;;;;;17.70;100.00;101099.00;5249185;28;20212;-82
2023/09/12 03:12:02;;;;;;;22.63;20.43;;;;;;;17.60;100.00;101101.13;5249542;28;20055;-81
2023/09/12 03:14:33;;;;;;;23.60;21.10;;;;;;;17.65;100.00;101098.34;5246891;28;20021;-82
2023/09/12 03:17:05;;;;;;;25.83;21.70;;;;;;;17.60;100.00;101101.13;5247103;28;20034;-81
2023/09/12 03:19:36;;;;;;;23.43;20.83;;;;;;;17.59;100.00;101088.84;5249127;28;20026;-82
2023/09/12 03:22:07;;;;;;;26.03;21.37;;;;;;;17.51;100.00;101083.00;5249745;28;20041;-83
2023/09/12 03:24:39;;;;;;;23.27;21.07;;;;;;;17.55;100.00;101070.56;5248284;28;20454;-83
2023/09/12 03:27:10;;;;;;;25.50;21.40;;;;;;;17.41;100.00;101074.59;5249766;28;20029;-83
2023/09/12 03:29:42;;;;;;;26.70;21.87;;;;;;;17.44;100.00;101076.25;5248029;28;20488;-83
2023/09/12 03:32:13;;;;;;;29.80;23.13;;;;;;;17.42;100.00;101084.22;5250167;28;20033;-82
2023/09/12 03:34:44;;;;;;;24.90;22.07;;;;;;;17.42;100.00;101086.84;5249264;28;20495;-82
2023/09/12 03:37:16;;;;;;;24.27;21.40;;;;;;;17.42;100.00;101075.44;5250719;28;20057;-80
2023/09/12 03:39:47;;;;;;;25.47;21.67;;;;;;;17.43;100.00;101083.28;5253505;28;20088;-80
2023/09/12 03:42:18;;;;;;;28.07;21.73;;;;;;;17.36;100.00;101081.81;5265338;28;20041;-81
2023/09/12 03:44:50;;;;;;;23.00;20.60;;;;;;;17.43;100.00;101082.44;5265794;28;20038;-80
2023/09/12 03:47:21;;;;;;;24.27;21.67;;;;;;;17.42;100.00;101076.31;5251070;28;20053;-82
2023/09/12 03:49:52;;;;;;;23.57;21.07;;;;;;;17.52;100.00;101082.13;5250821;28;20033;-82
2023/09/12 03:52:24;;;;;;;25.47;22.53;;;;;;;17.54;100.00;101085.53;5251207;28;20044;-82
2023/09/12 03:54:55;;;;;;;24.90;21.57;;;;;;;17.60;100.00;101079.19;5248877;28;20065;-81
2023/09/12 03:57:26;;;;;;;31.37;23.07;;;;;;;17.58;100.00;101081.88;5248770;28;20030;-81
2023/09/12 03:59:58;;;;;;;26.27;22.93;;;;;;;17.53;100.00;101072.41;5248745;28;20037;-81
2023/09/12 04:02:29;;;;;;;29.53;23.00;;;;;;;17.53;100.00;101073.25;5247833;28;20029;-82
2023/09/12 04:05:01;;;;;;;26.13;23.53;;;;;;;17.55;100.00;101078.47;5246182;28;20029;-81
2023/09/12 04:07:32;;;;;;;25.57;22.97;;;;;;;17.63;100.00;101074.66;5248325;28;20087;-81
2023/09/12 04:10:04;;;;;;;25.07;22.63;;;;;;;17.64;100.00;101070.25;5247189;28;20132;-83
2023/09/12 04:12:36;;;;;;;29.77;24.25;;;;;;;17.54;100.00;101072.34;5246764;28;20152;-82
2023/09/12 04:15:07;;;;;;;26.33;23.73;;;;;;;17.55;100.00;101063.53;5248026;28;20029;-81
2023/09/12 04:17:39;;;;;;;25.07;22.47;;;;;;;17.61;100.00;101067.72;5249080;28;20030;-81
2023/09/12 04:20:13;;;;;;;24.90;22.50;;;;;;;17.55;100.00;101073.22;5252896;28;20038;-83
2023/09/12 04:22:45;;;;;;;28.60;22.80;;;;;;;17.46;100.00;101066.53;5252266;28;20022;-85
2023/09/12 04:25:16;;;;;;;32.00;24.07;;;;;;;17.45;100.00;101063.03;5249529;28;20034;-82
2023/09/12 04:27:48;;;;;;;27.77;24.63;;;;;;;17.38;100.00;101069.44;5248301;28;20492;-83
2023/09/12 04:30:19;;;;;;;25.80;23.00;;;;;;;17.33;100.00;101076.66;5248947;28;20465;-82
2023/09/12 04:32:50;;;;;;;26.70;22.90;;;;;;;17.30;100.00;101077.59;5249413;28;20034;-83
2023/09/12 04:35:22;;;;;;;27.00;23.23;;;;;;;17.39;100.00;101081.69;5248975;28;20089;-83
2023/09/12 04:37:53;;;;;;;26.40;23.70;;;;;;;17.35;100.00;101097.66;5246964;28;20107;-83
2023/09/12 04:40:25;;;;;;;25.23;22.40;;;;;;;17.29;100.00;101081.19;5248661;28;20038;-83
2023/09/12 04:42:56;;;;;;;24.53;22.07;;;;;;;17.33;100.00;101084.56;5248703;28;20377;-81
2023/09/12 04:45:27;;;;;;;26.43;22.07;;;;;;;17.35;100.00;101087.97;5251872;28;20389;-83
2023/09/12 04:47:59;;;;;;;25.60;22.83;;;;;;;17.35;100.00;101085.34;5269081;28;20072;-82
2023/09/12 04:50:30;;;;;;;25.07;22.47;;;;;;;17.41;100.00;101086.91;5269192;28;20046;-82
2023/09/12 04:53:02;;;;;;;23.37;20.87;;;;;;;17.40;100.00;101093.94;5268295;28;20380;-82
2023/09/12 04:55:36;;;;;;;25.13;22.53;;;;;;;17.35;100.00;101095.03;5267577;28;20532;-82
2023/09/12 04:58:07;;;;;;;22.88;20.52;;;;;;;17.41;100.00;101100.09;5277533;28;20025;-83
2023/09/12 05:00:39;;;;;;;26.57;23.23;;;;;;;17.42;100.00;101094.75;5279363;28;20104;-83
2023/09/12 05:03:11;;;;;;;25.02;22.00;;;;;;;17.34;100.00;101102.09;5275935;28;20033;-83
2023/09/12 05:05:46;;;;;;;23.77;21.37;;;;;;;17.34;100.00;101101.22;5274379;28;20090;-82
2023/09/12 05:08:18;;;;;;;24.70;21.77;;;;;;;17.32;100.00;101090.72;5275137;28;20029;-82
2023/09/12 05:10:49;;;;;;;25.93;21.73;;;;;;;17.43;100.00;101099.09;5274581;28;20065;-82
2023/09/12 05:13:21;;;;;;;25.57;22.73;;;;;;;17.45;100.00;101089.38;5268183;28;20488;-81
2023/09/12 05:15:52;;;;;;;24.27;21.87;;;;;;;17.33;100.00;101103.00;5269016;28;20643;-83
2023/09/12 05:18:24;;;;;;;26.43;23.20;;;;;;;17.34;100.00;101101.22;5269353;28;20037;-83
2023/09/12 05:20:55;;;;;;;25.23;21.63;;;;;;;17.42;100.00;101104.44;5269831;28;20052;-84
2023/09/12 05:23:27;;;;;;;28.50;23.15;;;;;;;17.45;100.00;101096.41;5267819;28;20035;-82
2023/09/12 05:25:58;;;;;;;26.20;23.43;;;;;;;17.44;100.00;101085.03;5268703;28;20044;-82
2023/09/12 05:28:30;;;;;;;24.37;21.27;;;;;;;17.48;100.00;101077.84;5269386;28;20039;-82
2023/09/12 05:31:02;;;;;;;24.43;21.83;;;;;;;17.48;100.00;101073.47;5270356;28;20051;-82
2023/09/12 05:33:34;;;;;;;24.73;22.02;;;;;;;17.45;100.00;101065.66;5267638;28;20025;-82
2023/09/12 05:36:06;;;;;;;24.95;21.17;;;;;;;17.52;100.00;101061.03;5267139;28;20102;-82
2023/09/12 05:38:37;;;;;;;24.57;22.00;;;;;;;17.53;100.00;101060.09;5250313;28;20136;-83
2023/09/12 05:41:09;;;;;;;27.60;22.73;;;;;;;17.52;100.00;101065.41;5269243;28;20096;-83
2023/09/12 05:43:40;;;;;;;27.43;23.67;;;;;;;17.57;100.00;101068.75;5270440;28;20060;-82
2023/09/12 05:46:11;;;;;;;26.37;23.03;;;;;;;17.62;100.00;101072.09;5273186;28;20037;-83
2023/09/12 05:48:43;;;;;;;24.70;21.83;;;;;;;17.67;100.00;101076.25;5267910;28;20037;-82
2023/09/12 05:51:14;;;;;;;26.03;22.13;;;;;;;17.67;100.00;101070.97;5266914;28;20041;-81
2023/09/12 05:53:45;;;;;;;26.80;22.27;;;;;;;17.74;100.00;101078.66;5265753;28;20026;-83
2023/09/12 05:56:17;;;;;;;26.40;21.60;;;;;;;17.75;100.00;101083.88;5266943;28;20029;-82
2023/09/12 05:58:50;;;;;;;24.57;21.87;;;;;;;17.75;100.00;101083.88;5267252;28;20037;-81
2023/09/12 06:01:21;;;;;;;30.17;22.52;;;;;;;17.75;100.00;101088.28;5267380;28;20075;-82
2023/09/12 06:03:53;;;;;;;24.93;22.23;;;;;;;17.72;100.00;101083.13;5267833;28;20480;-82
2023/09/12 06:06:25;;;;;;;25.45;21.88;;;;;;;17.78;100.00;101089.03;5266756;28;20064;-82
2023/09/12 06:08:58;;;;;;;28.17;23.23;;;;;;;17.79;100.00;101098.66;5265811;28;20072;-82
2023/09/12 06:11:29;;;;;;;;;;;;;;;17.91;100.00;101101.78;5268893;28;20688;-81
2023/09/12 06:14:00;;;;;;;26.70;21.85;;;;;;;17.82;100.00;101089.78;5272395;28;19924;-79
2023/09/12 06:16:32;;;;;;;24.63;21.67;;;;;;;17.84;100.00;101091.44;5282673;28;20055;-83
2023/09/12 06:19:03;;;;;;;27.93;22.83;;;;;;;17.79;100.00;101092.50;5277416;28;20039;-82
2023/09/12 06:21:34;;;;;;;26.53;23.50;;;;;;;17.79;100.00;101101.31;5271213;28;20035;-82
2023/09/12 06:24:13;;;;;;;25.70;23.00;;;;;;;17.84;100.00;101099.34;5269368;28;20076;-83
2023/09/12 06:26:44;;;;;;;25.60;22.50;;;;;;;17.78;100.00;101093.47;5273348;28;20021;-84
2023/09/12 06:29:16;;;;;;;26.53;23.23;;;;;;;17.84;100.00;101094.06;5265783;28;20112;-83
2023/09/12 06:31:47;;;;;;;28.20;22.83;;;;;;;17.88;100.00;101096.63;5265582;28;20029;-83
2023/09/12 06:34:19;;;;;;;28.13;24.67;;;;;;;17.81;100.00;101096.81;5265658;28;20041;-83
2023/09/12 06:36:50;;;;;;;24.63;21.73;;;;;;;17.83;100.00;101102.03;5265705;28;20143;-82
2023/09/12 06:39:22;;;;;;;28.20;23.70;;;;;;;17.93;100.00;101106.06;5269977;28;20380;-83
2023/09/12 06:41:53;;;;;;;27.58;21.70;;;;;;;17.89;100.00;101101.84;5270063;28;20429;-83
2023/09/12 06:44:25;;;;;;;26.20;22.30;;;;;;;18.01;100.00;101108.41;5269085;28;20171;-83
2023/09/12 06:46:56;;;;;;;27.27;22.67;;;;;;;18.04;100.00;101109.16;5269536;28;20033;-82
2023/09/12 06:49:29;;;;;;;28.80;23.80;;;;;;;18.06;100.00;101117.00;5270219;28;20036;-83
2023/09/12 06:52:00;;;;;;;28.17;23.52;;;;;;;18.07;100.00;101123.16;5269546;28;20040;-81
2023/09/12 06:54:33;;;;;;;28.07;23.83;;;;;;;18.11;100.00;101119.47;5270727;28;20033;-82
2023/09/12 06:57:04;;;;;;;30.92;24.77;;;;;;;18.14;100.00;101119.34;5273095;28;20120;-82
2023/09/12 06:59:35;;;;;;;25.87;23.13;;;;;;;18.17;100.00;101119.25;5269300;28;20064;-82
2023/09/12 07:02:07;;;;;;;31.63;23.93;;;;;;;18.22;100.00;101125.19;5270061;28;20056;-82
2023/09/12 07:04:38;;;;;;;29.83;23.97;;;;;;;18.25;100.00;101125.06;5269686;28;20028;-82
2023/09/12 07:07:10;;;;;;;29.53;23.47;;;;;;;18.45;100.00;101111.09;5284079;28;20267;-82
2023/09/12 07:09:41;;;;;;;29.43;24.10;;;;;;;18.51;100.00;101125.81;5267871;28;20120;-82
2023/09/12 07:12:13;;;;;;;28.73;23.97;;;;;;;18.62;100.00;101122.75;5269615;28;20029;-83
2023/09/12 07:14:44;;;;;;;28.50;24.67;;;;;;;18.68;100.00;101125.97;5268627;28;20032;-82
2023/09/12 07:17:15;;;;;;;27.50;24.53;;;;;;;18.69;100.00;101130.34;5267532;28;20025;-83
2023/09/12 07:19:47;;;;;;;25.33;21.43;;;;;;;18.86;100.00;101127.03;5274836;28;20036;-81
2023/09/12 07:22:18;;;;;;;27.23;24.33;;;;;;;18.83;100.00;101126.28;5268859;28;20060;-82
2023/09/12 07:24:50;;;;;;;33.27;23.40;;;;;;;18.79;100.00;101138.75;5267536;28;20677;-81
2023/09/12 07:27:21;;;;;;;26.90;23.63;;;;;;;18.69;100.00;101130.34;5268732;28;20364;-82
2023/09/12 07:29:52;;;;;;;29.10;23.50;;;;;;;18.69;100.00;101130.34;5268741;28;20360;-82
2023/09/12 07:32:24;;;;;;;30.53;25.13;;;;;;;18.59;100.00;101142.19;5269943;28;20044;-82
2023/09/12 07:34:55;;;;;;;27.97;24.60;;;;;;;18.48;100.00;101141.75;5268803;28;20029;-82
2023/09/12 07:37:27;;;;;;;28.37;24.20;;;;;;;18.43;100.00;101139.31;5271303;28;20079;-82
2023/09/12 07:39:58;;;;;;;27.87;23.27;;;;;;;18.59;100.00;101145.72;5270317;28;20218;-82
2023/09/12 07:42:29;;;;;;;33.03;27.27;;;;;;;18.69;100.00;101132.09;5270072;28;20032;-81
2023/09/12 07:45:03;;;;;;;31.90;27.93;;;;;;;18.75;100.00;101135.34;5268527;28;20083;-82
2023/09/12 07:47:34;;;;;;;29.35;25.92;;;;;;;19.01;100.00;101136.06;5251790;28;20036;-82
2023/09/12 07:50:09;;;;;;;30.00;25.50;;;;;;;19.18;100.00;101127.44;5269562;28;20025;-82
2023/09/12 07:52:40;;;;;;;30.92;23.60;;;;;;;19.21;100.00;101131.75;5271682;28;20037;-81
2023/09/12 07:55:12;;;;;;;29.83;24.33;;;;;;;19.30;100.00;101129.56;5269799;28;20044;-81
2023/09/12 07:57:43;;;;;;;27.97;25.07;;;;;;;19.58;100.00;101132.75;5270914;28;20036;-82
2023/09/12 08:00:16;;;;;;;26.10;23.30;;;;;;;19.64;100.00;101132.47;5270265;28;20033;-82
2023/09/12 08:02:47;;;;;;;27.75;24.42;;;;;;;19.69;100.00;101138.44;5270211;28;20029;-80
2023/09/12 08:05:19;;;;;;;24.50;21.93;;;;;;;19.80;100.00;101144.13;5270594;28;20062;-80
2023/09/12 08:07:50;;;;;;;24.95;22.30;;;;;;;19.91;100.00;101140.09;5273012;28;20037;-82
2023/09/12 08:10:22;;;;;;;25.90;23.33;;;;;;;20.18;100.00;101145.91;5270617;28;20383;-81
2023/09/12 08:12:53;;;;;;;15.87;14.03;;;;;;;20.30;100.00;101166.50;5270636;28;20032;-81
2023/09/12 08:15:24;;;;;;;17.33;15.60;;;;;;;20.84;100.00;101178.97;5251253;28;20460;-81
2023/09/12 08:17:56;;;;;;;18.97;16.60;;;;;;;21.15;97.91;101182.72;5269967;28;20495;-81
2023/09/12 08:20:27;;;;;;;17.37;15.43;;;;;;;21.41;99.47;101184.88;5269310;28;20029;-81
2023/09/12 08:22:58;;;;;;;18.90;15.50;;;;;;;21.37;92.10;101191.28;5271201;28;20044;-82
2023/09/12 08:25:30;;;;;;;16.47;14.73;;;;;;;21.39;93.36;101181.44;5269026;28;20423;-81
2023/09/12 08:28:01;;;;;;;16.13;13.50;;;;;;;21.24;89.46;101191.06;5269261;28;20037;-81
2023/09/12 08:30:33;;;;;;;15.63;14.03;;;;;;;21.23;91.31;101193.78;5270250;28;20366;-81
2023/09/12 08:33:06;;;;;;;17.87;14.93;;;;;;;21.34;91.50;101202.03;5269663;28;20350;-80
2023/09/12 08:35:38;;;;;;;17.98;16.08;;;;;;;21.25;93.95;101202.50;5269521;28;20095;-82
2023/09/12 08:38:10;;;;;;;16.13;14.60;;;;;;;21.08;94.17;101209.53;5270309;28;20495;-82
2023/09/12 08:40:48;;;;;;;16.88;15.10;;;;;;;21.06;93.38;101208.75;5269560;28;20030;-81
2023/09/12 08:43:20;;;;;;;14.85;13.27;;;;;;;21.18;93.88;101206.41;5271191;28;20424;-81
2023/09/12 08:45:52;;;;;;;;;;;;;;;21.60;94.58;101202.50;5270983;28;20105;-78
2023/09/12 08:48:24;;;;;;;12.83;11.63;;;;;;;21.63;91.55;101210.31;5279765;28;19916;-78
2023/09/12 08:50:56;;;;;;;15.45;11.88;;;;;;;21.88;90.33;101204.56;5286462;28;20025;-79
2023/09/12 08:53:28;;;;;;;12.65;11.32;;;;;;;22.05;89.00;101214.25;5285395;28;20053;-81
2023/09/12 08:56:00;;;;;;;12.07;9.93;;;;;;;22.45;87.19;101204.13;5275026;28;20067;-81
2023/09/12 08:58:33;;;;;;;9.90;8.80;;;;;;;22.86;83.14;101210.69;5269930;28;20037;-82
2023/09/12 09:01:06;;;;;;;7.18;6.47;;;;;;;23.46;80.31;101216.03;5272067;28;20036;-82
2023/09/12 09:03:40;;;;;;;8.40;7.47;;;;;;;23.10;77.42;101217.28;5268221;28;20063;-82
2023/09/12 09:06:12;;;;;;;7.75;6.95;;;;;;;22.48;81.46;101217.25;5269000;28;20058;-82
2023/09/12 09:08:45;;;;;;;8.80;7.63;;;;;;;22.68;82.49;101217.91;5271017;28;20025;-82
2023/09/12 09:11:16;;;;;;;8.43;6.75;;;;;;;22.86;81.04;101219.53;5271221;28;20029;-81
2023/09/12 09:13:48;;;;;;;7.97;6.68;;;;;;;23.28;76.84;101196.72;5269634;28;20029;-80
2023/09/12 09:16:21;;;;;;;10.27;9.18;;;;;;;23.23;76.05;101192.59;5267077;28;20033;-83
2023/09/12 09:19:00;;;;;;;15.10;12.95;;;;;;;23.75;76.85;101184.13;5269859;28;20045;-82
2023/09/12 09:21:33;;;;;;;16.52;14.73;;;;;;;24.48;73.73;101184.91;5270202;28;20095;-82
2023/09/12 09:24:08;;;;;;;16.40;14.68;;;;;;;24.91;71.29;101190.09;5270396;28;20520;-82
2023/09/12 09:26:50;;;;;;;15.80;14.20;;;;;;;24.74;71.73;101177.88;5268699;28;20120;-83
2023/09/12 09:29:21;;;;;;;16.45;14.63;;;;;;;24.88;70.33;101179.63;5268596;28;20439;-83
2023/09/12 09:31:52;;;;;;;18.70;16.17;;;;;;;25.29;68.71;101184.00;5267583;28;20037;-82
2023/09/12 09:34:24;;;;;;;17.48;15.25;;;;;;;25.31;68.89;101182.09;5266562;28;20124;-82
2023/09/12 09:36:57;;;;;;;18.60;16.63;;;;;;;25.50;68.90;101181.66;5251361;28;20033;-82
2023/09/12 09:39:31;;;;;;;22.10;18.25;;;;;;;25.53;67.13;101185.94;5268453;28;20111;-83
2023/09/12 09:42:03;;;;;;;21.00;18.90;;;;;;;25.39;66.83;101193.09;5268415;28;20476;-82
2023/09/12 09:44:34;;;;;;;;;;;;;;;26.27;65.78;101184.22;5267325;28;20120;-83
2023/09/12 09:47:05;;;;;;;22.50;20.27;;;;;;;25.67;65.55;101177.81;5266737;28;19917;-82
2023/09/12 09:49:37;;;;;;;;;;;;;;;27.10;67.70;101175.41;5269945;28;20053;-84
2023/09/12 09:52:08;;;;;;;21.90;19.65;;;;;;;27.41;64.61;101169.53;5269736;28;20054;-83
2023/09/12 09:54:42;;;;;;;;;;;;;;;28.81;63.50;101179.72;5268532;28;20179;-82
2023/09/12 09:57:14;;;;;;;20.60;18.55;;;;;;;28.49;58.79;101179.69;5268186;28;20023;-83
2023/09/12 09:59:53;;;;;;;23.52;21.13;;;;;;;28.39;58.22;101179.59;5267243;28;20100;-82
2023/09/12 10:02:25;;;;;;;22.73;20.45;;;;;;;27.99;56.00;101182.84;5266801;28;20392;-82
2023/09/12 10:04:59;;;;;;;21.55;19.42;;;;;;;28.14;56.25;101183.44;5271741;28;20101;-81
2023/09/12 10:07:33;;;;;;;21.63;19.42;;;;;;;27.99;55.10;101182.84;5283056;28;20033;-81
2023/09/12 10:10:05;;;;;;;20.55;18.50;;;;;;;28.29;54.19;101181.31;5283309;28;20086;-83
2023/09/12 10:12:47;;;;;;;22.60;19.15;;;;;;;29.54;53.93;101178.97;5275363;28;20029;-83
2023/09/12 10:15:20;;;;;;;19.30;17.25;;;;;;;30.40;49.75;101176.75;5282462;28;20029;-80
2023/09/12 10:17:57;;;;;;;21.83;19.15;;;;;;;30.26;52.25;101167.19;5286397;28;20029;-81
2023/09/12 10:20:37;;;;;;;24.27;20.52;;;;;;;30.15;52.35;101170.84;5274607;28;20132;-82
2023/09/12 10:23:14;;;;;;;22.40;20.08;;;;;;;29.91;49.94;101167.69;5273536;28;20037;-83
2023/09/12 10:25:49;;;;;;;22.77;20.48;;;;;;;28.29;51.22;101165.25;5270538;28;20052;-83
2023/09/12 10:28:21;;;;;;;20.20;18.10;;;;;;;28.12;53.88;101161.28;5270867;28;20048;-81
2023/09/12 10:30:57;;;;;;;22.08;18.98;;;;;;;28.56;55.29;101162.97;5276799;28;20033;-81
2023/09/12 10:33:31;;;;;;;22.60;17.52;;;;;;;30.11;53.12;101156.00;5269174;28;20033;-81
2023/09/12 10:36:08;;;;;;;18.77;16.92;;;;;;;30.96;48.48;101160.91;5272226;28;20033;-83
2023/09/12 10:38:44;;;;;;;22.75;19.08;;;;;;;30.34;51.33;101153.91;5270963;28;20053;-82
2023/09/12 10:41:16;;;;;;;22.65;20.38;;;;;;;29.94;48.99;101156.66;5280170;28;20029;-83
2023/09/12 10:43:52;;;;;;;21.80;19.60;;;;;;;30.01;49.21;101157.81;5275465;28;20078;-82
2023/09/12 10:46:23;;;;;;;23.63;20.55;;;;;;;30.23;48.19;101156.72;5271197;28;20032;-82
2023/09/12 10:48:55;;;;;;;24.40;21.75;;;;;;;30.90;47.63;101155.06;5270435;28;20093;-81
2023/09/12 10:51:26;;;;;;;24.88;21.25;;;;;;;31.41;46.04;101154.84;5282478;28;20040;-81
2023/09/12 10:53:58;;;;;;;22.85;19.75;;;;;;;31.66;45.90;101161.44;5287839;28;20110;-80
2023/09/12 10:56:32;;;;;;;20.08;17.95;;;;;;;32.37;46.91;101161.78;5288749;28;20041;-81
2023/09/12 10:59:06;;;;;;;13.55;12.18;;;;;;;33.57;39.93;101163.91;5287612;28;20033;-81
2023/09/12 11:01:42;;;;;;;21.20;18.98;;;;;;;34.15;39.69;101170.41;5285174;28;20032;-82
2023/09/12 11:04:20;;;;;;;19.58;17.63;;;;;;;34.02;39.27;101170.06;5279972;28;20039;-81
2023/09/12 11:06:52;;;;;;;26.55;22.20;;;;;;;34.69;38.12;101151.03;5274932;28;20021;-83
2023/09/12 11:09:24;;;;;;;27.98;25.35;;;;;;;34.88;37.68;101149.88;5269138;28;20036;-82
2023/09/12 11:11:56;;;;;;;28.50;25.50;;;;;;;34.69;38.32;101142.09;5270877;28;20094;-81
2023/09/12 11:14:28;;;;;;;26.88;24.42;;;;;;;32.79;39.82;101139.59;5269022;28;20120;-82
2023/09/12 11:17:21;;;;;;;26.48;23.67;;;;;;;34.07;41.54;101137.06;5269846;28;20483;-81
2023/09/12 11:19:52;;;;;;;28.33;25.60;;;;;;;32.84;40.18;101142.66;5272923;28;20025;-81
2023/09/12 11:22:30;;;;;;;28.65;25.90;;;;;;;31.00;44.09;101138.94;5278958;28;20033;-82
2023/09/12 11:25:03;;;;;;;27.30;24.83;;;;;;;29.69;47.63;101148.06;5284443;28;20025;-82
2023/09/12 11:28:04;;;;;;;28.90;26.00;;;;;;;29.06;51.14;101145.44;5275080;28;20029;-81
2023/09/12 11:30:35;;;;;;;27.93;25.33;;;;;;;28.59;52.81;101142.28;5275070;28;20116;-80